sensor_id;sensor_type;location;lat;lon;timestamp;temperature;humidity
21425;DHT22;10873;51.132;16.848;2022-07-29T00:01:46;28.70;51.90
21425;DHT22;10873;51.132;16.848;2022-07-29T00:04:12;28.70;51.90
21425;DHT22;10873;51.132;16.848;2022-07-29T00:06:39;28.70;52.00
21425;DHT22;10873;51.132;16.848;2022-07-29T00:09:05;28.70;51.90
21425;DHT22;10873;51.132;16.848;2022-07-29T00:11:31;28.70;52.00
21425;DHT22;10873;51.132;16.848;2022-07-29T00:13:59;28.70;52.00
21425;DHT22;10873;51.132;16.848;2022-07-29T00:16:25;28.70;52.00
21425;DHT22;10873;51.132;16.848;2022-07-29T00:18:51;28.70;52.00
21425;DHT22;10873;51.132;16.848;2022-07-29T00:21:17;28.70;52.00
21425;DHT22;10873;51.132;16.848;2022-07-29T00:23:43;28.70;52.00
21425;DHT22;10873;51.132;16.848;2022-07-29T00:26:09;28.60;52.00
21425;DHT22;10873;51.132;16.848;2022-07-29T00:28:35;28.60;52.00
21425;DHT22;10873;51.132;16.848;2022-07-29T00:31:03;28.60;52.00
21425;DHT22;10873;51.132;16.848;2022-07-29T00:33:29;28.60;52.00
21425;DHT22;10873;51.132;16.848;2022-07-29T00:35:56;28.60;52.00
21425;DHT22;10873;51.132;16.848;2022-07-29T00:38:22;28.60;52.00
21425;DHT22;10873;51.132;16.848;2022-07-29T00:40:48;28.60;52.00
21425;DHT22;10873;51.132;16.848;2022-07-29T00:43:14;28.60;52.00
21425;DHT22;10873;51.132;16.848;2022-07-29T00:45:41;28.60;52.10
21425;DHT22;10873;51.132;16.848;2022-07-29T00:48:09;28.60;52.00
21425;DHT22;10873;51.132;16.848;2022-07-29T00:50:36;28.60;52.00
21425;DHT22;10873;51.132;16.848;2022-07-29T00:53:03;28.50;51.90
21425;DHT22;10873;51.132;16.848;2022-07-29T00:55:31;28.50;52.00
21425;DHT22;10873;51.132;16.848;2022-07-29T00:57:58;28.50;52.00
21425;DHT22;10873;51.132;16.848;2022-07-29T01:00:26;28.50;52.00
21425;DHT22;10873;51.132;16.848;2022-07-29T01:02:52;28.50;52.00
21425;DHT22;10873;51.132;16.848;2022-07-29T01:05:21;28.50;52.00
21425;DHT22;10873;51.132;16.848;2022-07-29T01:07:49;28.50;52.00
21425;DHT22;10873;51.132;16.848;2022-07-29T01:10:18;28.50;52.00
21425;DHT22;10873;51.132;16.848;2022-07-29T01:12:47;28.50;52.10
21425;DHT22;10873;51.132;16.848;2022-07-29T01:15:14;28.50;52.10
21425;DHT22;10873;51.132;16.848;2022-07-29T01:17:44;28.50;52.10
21425;DHT22;10873;51.132;16.848;2022-07-29T01:20:16;28.40;52.00
21425;DHT22;10873;51.132;16.848;2022-07-29T01:23:10;28.50;52.10
21425;DHT22;10873;51.132;16.848;2022-07-29T01:26:13;28.40;52.00
21425;DHT22;10873;51.132;16.848;2022-07-29T01:29:02;28.40;52.00
21425;DHT22;10873;51.132;16.848;2022-07-29T01:31:33;28.40;52.00
21425;DHT22;10873;51.132;16.848;2022-07-29T01:34:03;28.50;52.10
21425;DHT22;10873;51.132;16.848;2022-07-29T01:36:35;28.40;52.00
21425;DHT22;10873;51.132;16.848;2022-07-29T01:39:06;28.50;52.10
21425;DHT22;10873;51.132;16.848;2022-07-29T01:41:34;28.40;52.00
21425;DHT22;10873;51.132;16.848;2022-07-29T01:44:10;28.40;52.00
21425;DHT22;10873;51.132;16.848;2022-07-29T01:46:41;28.40;52.00
21425;DHT22;10873;51.132;16.848;2022-07-29T01:49:10;28.40;52.00
21425;DHT22;10873;51.132;16.848;2022-07-29T01:51:44;28.50;52.70
21425;DHT22;10873;51.132;16.848;2022-07-29T01:54:16;28.40;52.00
21425;DHT22;10873;51.132;16.848;2022-07-29T01:56:45;28.40;52.00
21425;DHT22;10873;51.132;16.848;2022-07-29T01:59:15;28.40;52.00
21425;DHT22;10873;51.132;16.848;2022-07-29T02:01:44;28.40;52.00
21425;DHT22;10873;51.132;16.848;2022-07-29T02:04:12;28.40;52.00
21425;DHT22;10873;51.132;16.848;2022-07-29T02:06:40;28.40;52.00
21425;DHT22;10873;51.132;16.848;2022-07-29T02:09:09;28.40;52.00
21425;DHT22;10873;51.132;16.848;2022-07-29T02:11:37;28.40;52.00
21425;DHT22;10873;51.132;16.848;2022-07-29T02:14:05;28.40;52.00
21425;DHT22;10873;51.132;16.848;2022-07-29T02:16:33;28.40;52.00
21425;DHT22;10873;51.132;16.848;2022-07-29T02:19:02;28.40;52.00
21425;DHT22;10873;51.132;16.848;2022-07-29T02:21:30;28.40;52.00
21425;DHT22;10873;51.132;16.848;2022-07-29T02:23:59;28.40;52.00
21425;DHT22;10873;51.132;16.848;2022-07-29T02:26:27;28.40;52.00
21425;DHT22;10873;51.132;16.848;2022-07-29T02:28:56;28.40;52.00
21425;DHT22;10873;51.132;16.848;2022-07-29T02:31:25;28.40;52.00
21425;DHT22;10873;51.132;16.848;2022-07-29T02:33:54;28.40;51.90
21425;DHT22;10873;51.132;16.848;2022-07-29T02:36:22;28.40;51.90
21425;DHT22;10873;51.132;16.848;2022-07-29T02:38:50;28.40;51.90
21425;DHT22;10873;51.132;16.848;2022-07-29T02:41:20;28.40;52.00
21425;DHT22;10873;51.132;16.848;2022-07-29T02:43:52;28.40;52.00
21425;DHT22;10873;51.132;16.848;2022-07-29T02:46:26;28.40;51.90
21425;DHT22;10873;51.132;16.848;2022-07-29T02:48:59;28.30;51.90
21425;DHT22;10873;51.132;16.848;2022-07-29T02:51:32;28.30;51.80
21425;DHT22;10873;51.132;16.848;2022-07-29T02:54:01;28.40;52.00
21425;DHT22;10873;51.132;16.848;2022-07-29T02:56:32;28.30;51.90
21425;DHT22;10873;51.132;16.848;2022-07-29T02:59:03;28.40;52.00
21425;DHT22;10873;51.132;16.848;2022-07-29T03:01:32;28.30;51.90
21425;DHT22;10873;51.132;16.848;2022-07-29T03:22:09;28.30;51.90
21425;DHT22;10873;51.132;16.848;2022-07-29T03:24:37;28.30;51.90
21425;DHT22;10873;51.132;16.848;2022-07-29T03:27:04;28.30;51.90
21425;DHT22;10873;51.132;16.848;2022-07-29T03:29:31;28.30;52.60
21425;DHT22;10873;51.132;16.848;2022-07-29T03:31:57;28.30;51.90
21425;DHT22;10873;51.132;16.848;2022-07-29T03:34:23;28.20;51.90
21425;DHT22;10873;51.132;16.848;2022-07-29T03:36:49;28.30;52.00
21425;DHT22;10873;51.132;16.848;2022-07-29T03:39:21;28.20;52.00
21425;DHT22;10873;51.132;16.848;2022-07-29T03:41:49;28.20;52.00
21425;DHT22;10873;51.132;16.848;2022-07-29T03:44:19;28.20;52.00
21425;DHT22;10873;51.132;16.848;2022-07-29T03:46:46;28.20;52.00
21425;DHT22;10873;51.132;16.848;2022-07-29T03:49:15;28.20;52.70
21425;DHT22;10873;51.132;16.848;2022-07-29T03:51:42;28.20;52.10
21425;DHT22;10873;51.132;16.848;2022-07-29T03:54:08;28.20;52.10
21425;DHT22;10873;51.132;16.848;2022-07-29T03:56:39;28.20;52.20
21425;DHT22;10873;51.132;16.848;2022-07-29T03:59:07;28.20;52.60
21425;DHT22;10873;51.132;16.848;2022-07-29T04:01:33;28.20;52.80
21425;DHT22;10873;51.132;16.848;2022-07-29T04:04:01;28.20;52.70
21425;DHT22;10873;51.132;16.848;2022-07-29T04:06:27;28.20;52.80
21425;DHT22;10873;51.132;16.848;2022-07-29T04:08:53;28.20;52.80
21425;DHT22;10873;51.132;16.848;2022-07-29T04:11:19;28.20;52.70
21425;DHT22;10873;51.132;16.848;2022-07-29T04:13:47;28.20;53.10
21425;DHT22;10873;51.132;16.848;2022-07-29T04:16:13;28.20;53.10
21425;DHT22;10873;51.132;16.848;2022-07-29T04:18:39;28.10;53.10
21425;DHT22;10873;51.132;16.848;2022-07-29T04:21:05;28.10;53.20
21425;DHT22;10873;51.132;16.848;2022-07-29T04:23:31;28.10;53.20
21425;DHT22;10873;51.132;16.848;2022-07-29T04:25:59;28.10;53.30
21425;DHT22;10873;51.132;16.848;2022-07-29T04:28:27;28.10;53.50
21425;DHT22;10873;51.132;16.848;2022-07-29T04:30:54;28.10;53.50
21425;DHT22;10873;51.132;16.848;2022-07-29T04:33:20;28.00;53.70
21425;DHT22;10873;51.132;16.848;2022-07-29T04:35:46;28.00;53.80
21425;DHT22;10873;51.132;16.848;2022-07-29T04:38:12;28.00;54.50
21425;DHT22;10873;51.132;16.848;2022-07-29T04:40:38;28.00;54.40
21425;DHT22;10873;51.132;16.848;2022-07-29T04:43:04;28.00;54.50
21425;DHT22;10873;51.132;16.848;2022-07-29T04:45:30;28.10;54.70
21425;DHT22;10873;51.132;16.848;2022-07-29T04:47:58;28.10;54.70
21425;DHT22;10873;51.132;16.848;2022-07-29T04:50:24;28.10;54.90
21425;DHT22;10873;51.132;16.848;2022-07-29T04:52:50;28.20;55.30
21425;DHT22;10873;51.132;16.848;2022-07-29T04:55:16;28.20;55.20
21425;DHT22;10873;51.132;16.848;2022-07-29T04:57:42;28.20;55.20
21425;DHT22;10873;51.132;16.848;2022-07-29T05:00:09;28.20;55.00
21425;DHT22;10873;51.132;16.848;2022-07-29T05:02:36;28.20;55.30
21425;DHT22;10873;51.132;16.848;2022-07-29T05:05:04;28.30;55.40
21425;DHT22;10873;51.132;16.848;2022-07-29T05:07:30;28.30;53.70
21425;DHT22;10873;51.132;16.848;2022-07-29T05:09:56;28.20;53.90
21425;DHT22;10873;51.132;16.848;2022-07-29T05:12:23;28.20;53.90
21425;DHT22;10873;51.132;16.848;2022-07-29T05:14:49;28.20;53.70
21425;DHT22;10873;51.132;16.848;2022-07-29T05:17:15;28.20;53.50
21425;DHT22;10873;51.132;16.848;2022-07-29T05:19:41;28.20;53.40
21425;DHT22;10873;51.132;16.848;2022-07-29T05:22:08;28.10;53.40
21425;DHT22;10873;51.132;16.848;2022-07-29T05:24:34;28.10;53.40
21425;DHT22;10873;51.132;16.848;2022-07-29T05:27:01;28.10;53.50
21425;DHT22;10873;51.132;16.848;2022-07-29T05:29:27;28.00;53.50
21425;DHT22;10873;51.132;16.848;2022-07-29T05:31:53;28.00;53.60
21425;DHT22;10873;51.132;16.848;2022-07-29T05:34:19;28.00;53.50
21425;DHT22;10873;51.132;16.848;2022-07-29T05:36:45;27.90;53.30
21425;DHT22;10873;51.132;16.848;2022-07-29T05:39:13;27.90;53.20
21425;DHT22;10873;51.132;16.848;2022-07-29T05:41:39;27.90;53.30
21425;DHT22;10873;51.132;16.848;2022-07-29T05:44:06;27.90;53.40
21425;DHT22;10873;51.132;16.848;2022-07-29T05:46:32;27.90;53.50
21425;DHT22;10873;51.132;16.848;2022-07-29T05:48:58;27.90;53.60
21425;DHT22;10873;51.132;16.848;2022-07-29T05:51:24;27.90;53.70
21425;DHT22;10873;51.132;16.848;2022-07-29T05:53:50;27.90;53.80
21425;DHT22;10873;51.132;16.848;2022-07-29T05:56:17;27.90;53.90
21425;DHT22;10873;51.132;16.848;2022-07-29T05:58:43;27.90;54.00
21425;DHT22;10873;51.132;16.848;2022-07-29T06:01:09;27.90;54.10
21425;DHT22;10873;51.132;16.848;2022-07-29T06:03:36;27.90;54.20
21425;DHT22;10873;51.132;16.848;2022-07-29T06:06:03;27.90;54.30
21425;DHT22;10873;51.132;16.848;2022-07-29T06:08:30;27.90;54.40
21425;DHT22;10873;51.132;16.848;2022-07-29T06:10:56;27.90;54.50
21425;DHT22;10873;51.132;16.848;2022-07-29T06:13:23;27.90;54.50
21425;DHT22;10873;51.132;16.848;2022-07-29T06:15:49;27.90;54.50
21425;DHT22;10873;51.132;16.848;2022-07-29T06:18:15;27.90;54.60
21425;DHT22;10873;51.132;16.848;2022-07-29T06:20:41;27.90;54.70
21425;DHT22;10873;51.132;16.848;2022-07-29T06:23:07;27.90;54.70
21425;DHT22;10873;51.132;16.848;2022-07-29T06:25:34;27.90;54.80
21425;DHT22;10873;51.132;16.848;2022-07-29T06:28:03;27.90;54.80
21425;DHT22;10873;51.132;16.848;2022-07-29T06:30:31;27.90;54.80
21425;DHT22;10873;51.132;16.848;2022-07-29T06:32:57;27.90;54.90
21425;DHT22;10873;51.132;16.848;2022-07-29T06:35:23;27.90;55.00
21425;DHT22;10873;51.132;16.848;2022-07-29T06:37:49;27.90;55.00
21425;DHT22;10873;51.132;16.848;2022-07-29T06:40:15;27.90;55.00
21425;DHT22;10873;51.132;16.848;2022-07-29T06:43:00;27.90;55.10
21425;DHT22;10873;51.132;16.848;2022-07-29T06:45:26;27.90;55.10
21425;DHT22;10873;51.132;16.848;2022-07-29T06:47:54;27.90;55.10
21425;DHT22;10873;51.132;16.848;2022-07-29T06:50:20;27.90;55.10
21425;DHT22;10873;51.132;16.848;2022-07-29T06:52:47;27.90;55.20
21425;DHT22;10873;51.132;16.848;2022-07-29T06:55:13;27.90;55.20
21425;DHT22;10873;51.132;16.848;2022-07-29T06:57:39;27.90;55.30
21425;DHT22;10873;51.132;16.848;2022-07-29T07:00:07;27.90;55.30
21425;DHT22;10873;51.132;16.848;2022-07-29T07:02:33;27.90;55.30
21425;DHT22;10873;51.132;16.848;2022-07-29T07:05:00;27.90;55.40
21425;DHT22;10873;51.132;16.848;2022-07-29T07:07:27;27.90;55.40
21425;DHT22;10873;51.132;16.848;2022-07-29T07:09:53;27.90;55.40
21425;DHT22;10873;51.132;16.848;2022-07-29T07:12:19;27.90;55.50
21425;DHT22;10873;51.132;16.848;2022-07-29T07:14:45;27.90;55.50
21425;DHT22;10873;51.132;16.848;2022-07-29T07:17:11;27.90;55.50
21425;DHT22;10873;51.132;16.848;2022-07-29T07:19:37;27.90;55.60
21425;DHT22;10873;51.132;16.848;2022-07-29T07:22:05;27.90;55.50
21425;DHT22;10873;51.132;16.848;2022-07-29T07:24:31;27.90;55.60
21425;DHT22;10873;51.132;16.848;2022-07-29T07:26:57;27.90;55.60
21425;DHT22;10873;51.132;16.848;2022-07-29T07:29:23;27.90;55.60
21425;DHT22;10873;51.132;16.848;2022-07-29T07:31:49;27.90;55.60
21425;DHT22;10873;51.132;16.848;2022-07-29T07:34:15;27.90;55.70
21425;DHT22;10873;51.132;16.848;2022-07-29T07:36:41;28.00;55.70
21425;DHT22;10873;51.132;16.848;2022-07-29T07:39:09;27.90;55.70
21425;DHT22;10873;51.132;16.848;2022-07-29T07:41:35;28.00;55.80
21425;DHT22;10873;51.132;16.848;2022-07-29T07:44:01;28.00;55.80
21425;DHT22;10873;51.132;16.848;2022-07-29T07:46:27;28.00;55.80
21425;DHT22;10873;51.132;16.848;2022-07-29T07:48:53;28.00;55.80
21425;DHT22;10873;51.132;16.848;2022-07-29T07:51:20;28.00;55.80
21425;DHT22;10873;51.132;16.848;2022-07-29T07:53:46;28.00;55.90
21425;DHT22;10873;51.132;16.848;2022-07-29T07:56:16;28.00;55.90
21425;DHT22;10873;51.132;16.848;2022-07-29T07:58:43;28.00;55.90
21425;DHT22;10873;51.132;16.848;2022-07-29T08:01:09;28.00;56.00
21425;DHT22;10873;51.132;16.848;2022-07-29T08:03:35;28.00;56.00
21425;DHT22;10873;51.132;16.848;2022-07-29T08:06:01;28.00;56.00
21425;DHT22;10873;51.132;16.848;2022-07-29T08:08:28;28.00;56.00
21425;DHT22;10873;51.132;16.848;2022-07-29T08:10:54;28.00;56.10
21425;DHT22;10873;51.132;16.848;2022-07-29T08:13:25;28.00;56.10
21425;DHT22;10873;51.132;16.848;2022-07-29T08:15:52;28.00;56.10
21425;DHT22;10873;51.132;16.848;2022-07-29T08:18:26;28.10;56.20
21425;DHT22;10873;51.132;16.848;2022-07-29T08:20:53;28.10;56.30
21425;DHT22;10873;51.132;16.848;2022-07-29T08:23:19;28.10;56.30
21425;DHT22;10873;51.132;16.848;2022-07-29T08:25:45;28.10;56.30
21425;DHT22;10873;51.132;16.848;2022-07-29T08:28:11;28.10;56.30
21425;DHT22;10873;51.132;16.848;2022-07-29T08:30:39;28.10;56.30
21425;DHT22;10873;51.132;16.848;2022-07-29T08:33:05;28.10;56.30
21425;DHT22;10873;51.132;16.848;2022-07-29T08:35:31;28.10;56.40
21425;DHT22;10873;51.132;16.848;2022-07-29T08:37:57;28.10;56.30
21425;DHT22;10873;51.132;16.848;2022-07-29T08:40:24;28.10;56.40
21425;DHT22;10873;51.132;16.848;2022-07-29T08:42:51;28.10;56.40
21425;DHT22;10873;51.132;16.848;2022-07-29T08:45:17;28.10;56.50
21425;DHT22;10873;51.132;16.848;2022-07-29T08:47:45;28.10;56.50
21425;DHT22;10873;51.132;16.848;2022-07-29T08:50:12;28.00;55.60
21425;DHT22;10873;51.132;16.848;2022-07-29T08:52:40;28.00;54.90
21425;DHT22;10873;51.132;16.848;2022-07-29T08:55:09;27.90;54.60
21425;DHT22;10873;51.132;16.848;2022-07-29T08:57:35;27.90;54.60
21425;DHT22;10873;51.132;16.848;2022-07-29T09:00:04;27.90;54.60
21425;DHT22;10873;51.132;16.848;2022-07-29T09:02:39;27.90;54.70
21425;DHT22;10873;51.132;16.848;2022-07-29T09:05:08;27.90;54.70
21425;DHT22;10873;51.132;16.848;2022-07-29T09:07:35;27.90;55.00
21425;DHT22;10873;51.132;16.848;2022-07-29T09:10:02;27.90;55.30
21425;DHT22;10873;51.132;16.848;2022-07-29T09:12:30;27.90;55.20
21425;DHT22;10873;51.132;16.848;2022-07-29T09:14:56;27.90;55.00
21425;DHT22;10873;51.132;16.848;2022-07-29T09:17:40;27.80;55.00
21425;DHT22;10873;51.132;16.848;2022-07-29T09:20:13;27.80;55.10
21425;DHT22;10873;51.132;16.848;2022-07-29T09:22:40;27.80;55.10
21425;DHT22;10873;51.132;16.848;2022-07-29T09:25:07;27.80;55.00
21425;DHT22;10873;51.132;16.848;2022-07-29T09:27:33;27.80;54.90
21425;DHT22;10873;51.132;16.848;2022-07-29T09:30:03;27.70;55.10
21425;DHT22;10873;51.132;16.848;2022-07-29T09:32:30;27.70;55.30
21425;DHT22;10873;51.132;16.848;2022-07-29T09:35:22;27.70;55.30
21425;DHT22;10873;51.132;16.848;2022-07-29T09:37:49;27.70;55.50
21425;DHT22;10873;51.132;16.848;2022-07-29T09:40:16;27.70;55.50
21425;DHT22;10873;51.132;16.848;2022-07-29T09:42:43;27.70;55.50
21425;DHT22;10873;51.132;16.848;2022-07-29T09:45:10;27.70;55.70
21425;DHT22;10873;51.132;16.848;2022-07-29T09:47:44;27.70;55.80
21425;DHT22;10873;51.132;16.848;2022-07-29T09:50:11;27.70;55.70
21425;DHT22;10873;51.132;16.848;2022-07-29T09:52:47;27.70;55.70
21425;DHT22;10873;51.132;16.848;2022-07-29T09:55:13;27.70;55.60
21425;DHT22;10873;51.132;16.848;2022-07-29T09:57:39;27.70;55.50
21425;DHT22;10873;51.132;16.848;2022-07-29T10:00:07;27.70;55.50
21425;DHT22;10873;51.132;16.848;2022-07-29T10:02:36;27.70;55.50
21425;DHT22;10873;51.132;16.848;2022-07-29T10:05:04;27.70;55.60
21425;DHT22;10873;51.132;16.848;2022-07-29T10:07:45;27.70;55.60
21425;DHT22;10873;51.132;16.848;2022-07-29T10:10:19;27.70;55.80
21425;DHT22;10873;51.132;16.848;2022-07-29T10:12:51;27.70;55.90
21425;DHT22;10873;51.132;16.848;2022-07-29T10:15:18;27.70;55.80
21425;DHT22;10873;51.132;16.848;2022-07-29T10:17:44;27.70;55.60
21425;DHT22;10873;51.132;16.848;2022-07-29T10:20:10;27.70;55.50
21425;DHT22;10873;51.132;16.848;2022-07-29T10:22:37;27.70;55.40
21425;DHT22;10873;51.132;16.848;2022-07-29T10:25:05;27.70;56.00
21425;DHT22;10873;51.132;16.848;2022-07-29T10:27:32;27.70;55.50
21425;DHT22;10873;51.132;16.848;2022-07-29T10:29:58;27.70;55.50
21425;DHT22;10873;51.132;16.848;2022-07-29T10:32:43;27.70;55.50
21425;DHT22;10873;51.132;16.848;2022-07-29T10:35:21;27.70;56.40
21425;DHT22;10873;51.132;16.848;2022-07-29T10:38:10;27.70;55.90
21425;DHT22;10873;51.132;16.848;2022-07-29T10:40:49;27.70;56.00
21425;DHT22;10873;51.132;16.848;2022-07-29T10:43:41;27.70;55.90
21425;DHT22;10873;51.132;16.848;2022-07-29T10:46:08;27.70;56.00
21425;DHT22;10873;51.132;16.848;2022-07-29T10:48:36;27.70;56.20
21425;DHT22;10873;51.132;16.848;2022-07-29T10:51:22;27.70;56.20
21425;DHT22;10873;51.132;16.848;2022-07-29T10:53:50;27.80;56.20
21425;DHT22;10873;51.132;16.848;2022-07-29T10:56:29;27.80;56.30
21425;DHT22;10873;51.132;16.848;2022-07-29T10:59:22;27.80;56.30
21425;DHT22;10873;51.132;16.848;2022-07-29T11:01:54;27.80;56.40
21425;DHT22;10873;51.132;16.848;2022-07-29T11:04:58;27.80;56.50
21425;DHT22;10873;51.132;16.848;2022-07-29T11:07:25;27.90;56.70
21425;DHT22;10873;51.132;16.848;2022-07-29T11:12:56;27.90;56.70
21425;DHT22;10873;51.132;16.848;2022-07-29T11:15:22;27.90;56.70
21425;DHT22;10873;51.132;16.848;2022-07-29T11:18:08;27.90;56.80
21425;DHT22;10873;51.132;16.848;2022-07-29T11:20:37;27.90;56.70
21425;DHT22;10873;51.132;16.848;2022-07-29T11:23:22;27.90;56.70
21425;DHT22;10873;51.132;16.848;2022-07-29T11:28:49;27.90;56.80
21425;DHT22;10873;51.132;16.848;2022-07-29T11:31:36;27.90;56.80
21425;DHT22;10873;51.132;16.848;2022-07-29T11:44:55;28.00;56.80
21425;DHT22;10873;51.132;16.848;2022-07-29T11:47:34;28.00;56.80
21425;DHT22;10873;51.132;16.848;2022-07-29T11:50:02;28.00;56.90
21425;DHT22;10873;51.132;16.848;2022-07-29T11:52:33;28.00;56.90
21425;DHT22;10873;51.132;16.848;2022-07-29T11:55:04;28.00;56.90
21425;DHT22;10873;51.132;16.848;2022-07-29T11:57:34;28.00;56.90
21425;DHT22;10873;51.132;16.848;2022-07-29T12:00:08;28.10;57.00
21425;DHT22;10873;51.132;16.848;2022-07-29T12:02:44;28.00;57.00
21425;DHT22;10873;51.132;16.848;2022-07-29T12:05:12;28.10;57.00
21425;DHT22;10873;51.132;16.848;2022-07-29T12:07:39;28.10;57.00
21425;DHT22;10873;51.132;16.848;2022-07-29T12:10:06;28.10;57.00
21425;DHT22;10873;51.132;16.848;2022-07-29T12:12:33;28.10;57.00
21425;DHT22;10873;51.132;16.848;2022-07-29T12:15:13;28.10;57.10
21425;DHT22;10873;51.132;16.848;2022-07-29T12:17:39;28.10;57.30
21425;DHT22;10873;51.132;16.848;2022-07-29T12:20:06;28.10;57.30
21425;DHT22;10873;51.132;16.848;2022-07-29T12:22:34;28.10;57.40
21425;DHT22;10873;51.132;16.848;2022-07-29T12:25:02;28.10;57.40
21425;DHT22;10873;51.132;16.848;2022-07-29T12:27:29;28.20;57.60
21425;DHT22;10873;51.132;16.848;2022-07-29T12:29:56;28.20;57.70
21425;DHT22;10873;51.132;16.848;2022-07-29T12:32:23;28.20;57.80
21425;DHT22;10873;51.132;16.848;2022-07-29T12:34:56;28.20;58.00
21425;DHT22;10873;51.132;16.848;2022-07-29T12:37:22;28.20;58.00
21425;DHT22;10873;51.132;16.848;2022-07-29T12:39:49;28.20;58.00
21425;DHT22;10873;51.132;16.848;2022-07-29T12:42:16;28.20;57.90
21425;DHT22;10873;51.132;16.848;2022-07-29T12:44:45;28.20;57.90
21425;DHT22;10873;51.132;16.848;2022-07-29T12:47:11;28.30;57.90
21425;DHT22;10873;51.132;16.848;2022-07-29T12:49:38;28.30;57.80
21425;DHT22;10873;51.132;16.848;2022-07-29T12:52:29;28.30;57.80
21425;DHT22;10873;51.132;16.848;2022-07-29T12:54:56;28.30;57.80
21425;DHT22;10873;51.132;16.848;2022-07-29T12:57:23;28.30;57.80
21425;DHT22;10873;51.132;16.848;2022-07-29T13:00:04;28.30;57.80
21425;DHT22;10873;51.132;16.848;2022-07-29T13:02:33;28.30;57.80
21425;DHT22;10873;51.132;16.848;2022-07-29T13:05:02;28.30;57.80
21425;DHT22;10873;51.132;16.848;2022-07-29T13:07:30;28.30;57.80
21425;DHT22;10873;51.132;16.848;2022-07-29T13:10:10;28.30;57.90
21425;DHT22;10873;51.132;16.848;2022-07-29T13:12:38;28.30;57.80
21425;DHT22;10873;51.132;16.848;2022-07-29T13:15:13;28.40;57.90
21425;DHT22;10873;51.132;16.848;2022-07-29T13:17:41;28.40;57.80
21425;DHT22;10873;51.132;16.848;2022-07-29T13:20:11;28.40;57.80
21425;DHT22;10873;51.132;16.848;2022-07-29T13:22:41;28.40;57.70
21425;DHT22;10873;51.132;16.848;2022-07-29T13:25:09;28.50;57.70
21425;DHT22;10873;51.132;16.848;2022-07-29T13:27:37;28.50;57.70
21425;DHT22;10873;51.132;16.848;2022-07-29T13:30:05;28.50;57.70
21425;DHT22;10873;51.132;16.848;2022-07-29T13:32:32;28.60;57.80
21425;DHT22;10873;51.132;16.848;2022-07-29T13:35:04;28.60;57.80
21425;DHT22;10873;51.132;16.848;2022-07-29T13:37:32;28.60;57.90
21425;DHT22;10873;51.132;16.848;2022-07-29T13:39:59;28.60;57.90
21425;DHT22;10873;51.132;16.848;2022-07-29T13:42:27;28.60;58.00
21425;DHT22;10873;51.132;16.848;2022-07-29T13:44:53;28.60;58.00
21425;DHT22;10873;51.132;16.848;2022-07-29T13:47:20;28.60;58.00
21425;DHT22;10873;51.132;16.848;2022-07-29T13:49:47;28.60;58.10
21425;DHT22;10873;51.132;16.848;2022-07-29T13:52:13;28.60;58.20
21425;DHT22;10873;51.132;16.848;2022-07-29T13:54:41;28.60;58.20
21425;DHT22;10873;51.132;16.848;2022-07-29T13:57:07;28.60;58.30
21425;DHT22;10873;51.132;16.848;2022-07-29T13:59:33;28.60;58.30
21425;DHT22;10873;51.132;16.848;2022-07-29T14:01:59;28.60;58.40
21425;DHT22;10873;51.132;16.848;2022-07-29T14:04:25;28.60;58.40
21425;DHT22;10873;51.132;16.848;2022-07-29T14:06:51;28.60;58.40
21425;DHT22;10873;51.132;16.848;2022-07-29T14:09:17;28.60;58.40
21425;DHT22;10873;51.132;16.848;2022-07-29T14:11:45;28.60;58.50
21425;DHT22;10873;51.132;16.848;2022-07-29T14:14:11;28.70;58.60
21425;DHT22;10873;51.132;16.848;2022-07-29T14:16:37;28.60;58.50
21425;DHT22;10873;51.132;16.848;2022-07-29T14:19:03;28.60;58.60
21425;DHT22;10873;51.132;16.848;2022-07-29T14:21:30;28.70;59.20
21425;DHT22;10873;51.132;16.848;2022-07-29T14:23:56;28.60;58.70
21425;DHT22;10873;51.132;16.848;2022-07-29T14:26:22;28.60;58.80
21425;DHT22;10873;51.132;16.848;2022-07-29T14:28:50;28.60;58.80
21425;DHT22;10873;51.132;16.848;2022-07-29T14:31:16;28.60;58.80
21425;DHT22;10873;51.132;16.848;2022-07-29T14:33:42;28.60;58.80
21425;DHT22;10873;51.132;16.848;2022-07-29T14:36:08;28.60;59.00
21425;DHT22;10873;51.132;16.848;2022-07-29T14:38:34;28.70;59.00
21425;DHT22;10873;51.132;16.848;2022-07-29T14:41:01;28.70;59.00
21425;DHT22;10873;51.132;16.848;2022-07-29T14:43:27;28.70;59.20
21425;DHT22;10873;51.132;16.848;2022-07-29T14:45:54;28.70;59.20
21425;DHT22;10873;51.132;16.848;2022-07-29T14:48:20;28.70;59.20
21425;DHT22;10873;51.132;16.848;2022-07-29T14:50:46;28.70;59.20
21425;DHT22;10873;51.132;16.848;2022-07-29T14:53:12;28.70;59.30
21425;DHT22;10873;51.132;16.848;2022-07-29T14:55:39;28.70;59.20
21425;DHT22;10873;51.132;16.848;2022-07-29T14:58:06;28.70;59.30
21425;DHT22;10873;51.132;16.848;2022-07-29T15:00:32;28.70;59.30
21425;DHT22;10873;51.132;16.848;2022-07-29T15:03:00;28.70;59.20
21425;DHT22;10873;51.132;16.848;2022-07-29T15:05:27;28.70;59.20
21425;DHT22;10873;51.132;16.848;2022-07-29T15:07:53;28.70;59.20
21425;DHT22;10873;51.132;16.848;2022-07-29T15:10:19;28.70;59.20
21425;DHT22;10873;51.132;16.848;2022-07-29T15:12:45;28.70;59.30
21425;DHT22;10873;51.132;16.848;2022-07-29T15:15:11;28.70;59.30
21425;DHT22;10873;51.132;16.848;2022-07-29T15:17:37;28.70;59.30
21425;DHT22;10873;51.132;16.848;2022-07-29T15:20:06;28.70;59.30
21425;DHT22;10873;51.132;16.848;2022-07-29T15:22:32;28.70;59.30
21425;DHT22;10873;51.132;16.848;2022-07-29T15:24:58;28.70;59.30
21425;DHT22;10873;51.132;16.848;2022-07-29T15:27:24;28.70;59.30
21425;DHT22;10873;51.132;16.848;2022-07-29T15:29:51;28.70;59.30
21425;DHT22;10873;51.132;16.848;2022-07-29T15:32:17;28.70;59.30
21425;DHT22;10873;51.132;16.848;2022-07-29T15:34:43;28.70;59.30
21425;DHT22;10873;51.132;16.848;2022-07-29T15:37:10;28.70;59.30
21425;DHT22;10873;51.132;16.848;2022-07-29T15:39:37;28.70;59.30
21425;DHT22;10873;51.132;16.848;2022-07-29T15:42:03;28.70;59.30
21425;DHT22;10873;51.132;16.848;2022-07-29T15:44:30;28.70;59.30
21425;DHT22;10873;51.132;16.848;2022-07-29T15:46:56;28.60;59.30
21425;DHT22;10873;51.132;16.848;2022-07-29T15:49:28;28.70;59.50
21425;DHT22;10873;51.132;16.848;2022-07-29T15:51:58;28.70;59.50
21425;DHT22;10873;51.132;16.848;2022-07-29T15:54:26;28.70;59.50
21425;DHT22;10873;51.132;16.848;2022-07-29T15:56:53;28.70;59.50
21425;DHT22;10873;51.132;16.848;2022-07-29T15:59:19;28.70;59.50